createdAt,value
2022-11-29T05:30:33.467Z,1000.40
2022-11-29T05:31:33.461Z,1000.40
2022-11-29T05:32:33.378Z,1000.44
2022-11-29T05:33:33.372Z,1000.38
2022-11-29T05:34:35.063Z,1000.37
2022-11-29T05:35:33.322Z,1000.34
2022-11-29T05:36:33.317Z,1000.38
2022-11-29T05:37:33.323Z,1000.43
2022-11-29T05:38:33.288Z,1000.39
2022-11-29T05:39:33.320Z,1000.41
2022-11-29T05:40:33.276Z,1000.44
2022-11-29T05:41:33.326Z,1000.41
2022-11-29T05:42:33.258Z,1000.38
2022-11-29T05:43:33.249Z,1000.39
2022-11-29T05:44:33.289Z,1000.33
2022-11-29T05:45:33.236Z,1000.35
2022-11-29T05:46:33.288Z,1000.31
2022-11-29T05:47:33.211Z,1000.35
2022-11-29T05:48:33.196Z,1000.34
2022-11-29T05:49:33.162Z,1000.34
2022-11-29T05:50:33.159Z,1000.32
2022-11-29T05:51:33.152Z,1000.36
2022-11-29T05:52:33.135Z,1000.34
2022-11-29T05:53:33.542Z,1000.36
2022-11-29T05:54:33.144Z,1000.39
2022-11-29T05:55:33.104Z,1000.40
2022-11-29T05:56:33.122Z,1000.38
2022-11-29T05:57:33.115Z,1000.37
2022-11-29T05:58:33.089Z,1000.36
2022-11-29T05:59:33.074Z,1000.36
2022-11-29T06:00:33.054Z,1000.39
2022-11-29T06:01:33.068Z,1000.35
2022-11-29T06:02:33.131Z,1000.36
2022-11-29T06:03:33.060Z,1000.36
2022-11-29T06:04:33.008Z,1000.35
2022-11-29T06:05:33.008Z,1000.35
2022-11-29T06:06:33.977Z,1000.43
2022-11-29T06:07:33.065Z,1000.45
2022-11-29T06:08:33.019Z,1000.50
2022-11-29T06:09:32.953Z,1000.50
2022-11-29T06:10:32.979Z,1000.54
2022-11-29T06:11:32.935Z,1000.54
2022-11-29T06:12:32.919Z,1000.54
2022-11-29T06:13:32.959Z,1000.58
2022-11-29T06:14:32.900Z,1000.56
2022-11-29T06:15:32.888Z,1000.55
2022-11-29T06:16:32.969Z,1000.61
2022-11-29T06:17:38.642Z,1000.58
2022-11-29T06:18:33.897Z,1000.62
2022-11-29T06:19:32.861Z,1000.62
2022-11-29T06:20:32.875Z,1000.69
2022-11-29T06:21:32.844Z,1000.71
2022-11-29T06:22:33.517Z,1000.71
2022-11-29T06:23:32.798Z,1000.69
2022-11-29T06:24:32.833Z,1000.70
2022-11-29T06:25:32.817Z,1000.68
2022-11-29T06:26:32.775Z,1000.66
2022-11-29T06:27:32.780Z,1000.70
2022-11-29T06:28:32.753Z,1000.72
2022-11-29T06:29:32.765Z,1000.72
2022-11-29T06:30:32.758Z,1000.73
2022-11-29T06:31:32.743Z,1000.75
2022-11-29T06:32:32.726Z,1000.75
2022-11-29T06:33:32.701Z,1000.79
2022-11-29T06:34:32.752Z,1000.75
2022-11-29T06:35:32.695Z,1000.78
2022-11-29T06:36:32.681Z,1000.73
2022-11-29T06:37:32.651Z,1000.74
2022-11-29T06:38:32.774Z,1000.74
2022-11-29T06:39:32.629Z,1000.75
2022-11-29T06:40:32.627Z,1000.70
2022-11-29T06:41:32.607Z,1000.76
2022-11-29T06:42:32.595Z,1000.74
2022-11-29T06:43:32.605Z,1000.78
2022-11-29T06:44:32.627Z,1000.78
2022-11-29T06:45:32.562Z,1000.77
2022-11-29T06:46:32.606Z,1000.77
2022-11-29T06:47:32.576Z,1000.85
2022-11-29T06:48:32.553Z,1000.83
2022-11-29T06:49:32.524Z,1000.84
2022-11-29T06:50:32.533Z,1000.86
2022-11-29T06:51:32.500Z,1000.90
2022-11-29T06:52:32.517Z,1000.90
2022-11-29T06:53:32.517Z,1000.93
2022-11-29T06:54:34.476Z,1000.89
2022-11-29T06:55:32.460Z,1000.90
2022-11-29T06:56:32.444Z,1000.96
2022-11-29T06:57:32.435Z,1000.97
2022-11-29T06:58:35.983Z,1000.95
2022-11-29T06:59:32.411Z,1001.01
2022-11-29T07:00:32.504Z,1001.01
2022-11-29T07:01:32.395Z,1001.00
2022-11-29T07:02:32.413Z,1001.01
2022-11-29T07:03:32.377Z,1001.05
2022-11-29T07:04:32.418Z,1001.06
2022-11-29T07:05:32.358Z,1001.11
2022-11-29T07:06:32.350Z,1001.08
2022-11-29T07:07:32.399Z,1001.08
2022-11-29T07:08:32.315Z,1001.07
2022-11-29T07:09:32.348Z,1001.09
2022-11-29T07:10:32.295Z,1001.03
2022-11-29T07:11:32.309Z,1001.00
2022-11-29T07:12:32.300Z,1001.03
2022-11-29T07:13:32.257Z,1001.08
2022-11-29T07:14:32.284Z,1001.06
2022-11-29T07:15:32.283Z,1001.09
2022-11-29T07:16:32.357Z,1001.12
2022-11-29T07:17:32.240Z,1001.10
2022-11-29T07:18:32.226Z,1001.11
2022-11-29T07:19:32.209Z,1001.11
2022-11-29T07:20:32.220Z,1001.10
2022-11-29T07:21:32.244Z,1001.16
2022-11-29T07:22:32.182Z,1001.16
2022-11-29T07:23:32.173Z,1001.18
2022-11-29T07:24:32.178Z,1001.23
2022-11-29T07:25:32.151Z,1001.22
2022-11-29T07:26:32.125Z,1001.23
2022-11-29T07:27:32.114Z,1001.23
2022-11-29T07:28:32.108Z,1001.22
2022-11-29T07:29:32.105Z,1001.25
2022-11-29T07:30:32.122Z,1001.20
2022-11-29T07:31:32.097Z,1001.21
2022-11-29T07:32:32.083Z,1001.24
2022-11-29T07:33:32.092Z,1001.29
2022-11-29T07:34:32.057Z,1001.30
2022-11-29T07:35:32.069Z,1001.28
2022-11-29T07:36:32.079Z,1001.33
2022-11-29T07:37:32.109Z,1001.33
2022-11-29T07:38:32.170Z,1001.35
2022-11-29T07:39:31.993Z,1001.35
2022-11-29T07:40:37.327Z,1001.33
2022-11-29T07:41:32.956Z,1001.36
2022-11-29T07:42:31.959Z,1001.35
2022-11-29T07:43:32.051Z,1001.39
2022-11-29T07:44:31.937Z,1001.36
2022-11-29T07:45:31.953Z,1001.34
2022-11-29T07:46:32.064Z,1001.37
2022-11-29T07:47:35.699Z,1001.36
2022-11-29T07:48:31.922Z,1001.42
2022-11-29T07:49:31.947Z,1001.43
2022-11-29T07:50:31.878Z,1001.41
2022-11-29T07:51:31.898Z,1001.40
2022-11-29T07:52:31.847Z,1001.43
2022-11-29T07:53:31.821Z,1001.43
2022-11-29T07:54:31.835Z,1001.41
2022-11-29T07:55:31.830Z,1001.46
2022-11-29T07:56:31.813Z,1001.44
2022-11-29T07:57:31.805Z,1001.49
2022-11-29T07:58:31.844Z,1001.48
2022-11-29T07:59:31.767Z,1001.44
2022-11-29T08:00:31.883Z,1001.48
2022-11-29T08:01:31.753Z,1001.46
2022-11-29T08:02:31.842Z,1001.48
2022-11-29T08:03:31.763Z,1001.52
2022-11-29T08:04:31.706Z,1001.54
2022-11-29T08:05:31.702Z,1001.54
2022-11-29T08:06:31.723Z,1001.52
2022-11-29T08:07:31.723Z,1001.54
2022-11-29T08:08:31.688Z,1001.54
2022-11-29T08:09:31.664Z,1001.53
2022-11-29T08:10:31.683Z,1001.56
2022-11-29T08:11:31.645Z,1001.58
2022-11-29T08:12:31.730Z,1001.59
2022-11-29T08:13:31.620Z,1001.59
2022-11-29T08:14:31.610Z,1001.63
2022-11-29T08:15:31.596Z,1001.64
2022-11-29T08:16:31.646Z,1001.65
2022-11-29T08:17:31.579Z,1001.65
2022-11-29T08:18:31.623Z,1001.65
2022-11-29T08:19:31.568Z,1001.62
2022-11-29T08:20:31.564Z,1001.69
2022-11-29T08:21:31.552Z,1001.67
2022-11-29T08:22:31.583Z,1001.65
2022-11-29T08:23:31.535Z,1001.67
2022-11-29T08:24:31.521Z,1001.67
2022-11-29T08:25:31.504Z,1001.69
2022-11-29T08:26:32.086Z,1001.66
2022-11-29T08:27:31.475Z,1001.67
2022-11-29T08:28:31.509Z,1001.70
2022-11-29T08:29:47.930Z,1001.69
2022-11-29T08:30:31.471Z,1001.70
2022-11-29T08:31:31.500Z,1001.75
2022-11-29T08:32:31.433Z,1001.74
2022-11-29T08:33:31.439Z,1001.75
2022-11-29T08:34:31.521Z,1001.78
2022-11-29T08:35:31.494Z,1001.82
2022-11-29T08:36:31.374Z,1001.86
2022-11-29T08:37:31.359Z,1001.84
2022-11-29T08:38:31.366Z,1001.89
2022-11-29T08:39:31.390Z,1001.86
2022-11-29T08:40:31.331Z,1001.92
2022-11-29T08:41:31.374Z,1001.92
2022-11-29T08:42:31.363Z,1001.93
2022-11-29T08:43:31.308Z,1001.93
2022-11-29T08:44:31.340Z,1001.97
2022-11-29T08:45:31.368Z,1001.93
2022-11-29T08:46:41.330Z,1001.94
2022-11-29T08:47:31.281Z,1001.98
2022-11-29T08:48:31.275Z,1001.96
2022-11-29T08:49:31.253Z,1002.00
2022-11-29T08:50:31.234Z,1001.99
2022-11-29T08:51:31.212Z,1002.03
2022-11-29T08:52:31.219Z,1002.01
2022-11-29T08:53:31.930Z,1001.99
2022-11-29T08:54:31.190Z,1002.02
2022-11-29T08:55:31.244Z,1002.03
2022-11-29T08:57:10.240Z,1002.02
2022-11-29T08:57:39.685Z,1002.06
2022-11-29T08:58:32.193Z,1002.11
2022-11-29T08:59:31.133Z,1002.12
2022-11-29T09:00:31.109Z,1002.13
2022-11-29T09:01:31.141Z,1002.12
2022-11-29T09:02:31.231Z,1002.13
2022-11-29T09:03:31.116Z,1002.12
2022-11-29T09:04:31.064Z,1002.13
2022-11-29T09:05:31.068Z,1002.13
2022-11-29T09:06:31.098Z,1002.09
2022-11-29T09:07:31.064Z,1002.13
2022-11-29T09:08:31.114Z,1002.16
2022-11-29T09:09:31.034Z,1002.15
2022-11-29T09:10:31.043Z,1002.19
2022-11-29T09:11:31.065Z,1002.23
2022-11-29T09:12:30.979Z,1002.23
2022-11-29T09:13:30.978Z,1002.23
2022-11-29T09:14:31.013Z,1002.27
2022-11-29T09:15:31.001Z,1002.26
2022-11-29T09:16:31.078Z,1002.28
2022-11-29T09:17:30.959Z,1002.26
2022-11-29T09:18:30.920Z,1002.30
2022-11-29T09:19:30.906Z,1002.31
2022-11-29T09:20:30.890Z,1002.29
2022-11-29T09:21:30.893Z,1002.35
2022-11-29T09:22:30.941Z,1002.33
2022-11-29T09:23:30.891Z,1002.36
2022-11-29T09:24:31.484Z,1002.39
2022-11-29T09:25:30.843Z,1002.41
2022-11-29T09:26:30.926Z,1002.39
2022-11-29T09:27:30.840Z,1002.40
2022-11-29T09:28:30.944Z,1002.42
2022-11-29T09:29:30.819Z,1002.45
2022-11-29T09:30:30.824Z,1002.48
2022-11-29T09:31:30.998Z,1002.46
2022-11-29T09:32:30.784Z,1002.45
2022-11-29T09:33:30.744Z,1002.45
2022-11-29T09:34:30.769Z,1002.51
2022-11-29T09:35:30.759Z,1002.47
2022-11-29T09:36:30.723Z,1002.51
2022-11-29T09:37:30.767Z,1002.51
2022-11-29T09:38:30.707Z,1002.50
2022-11-29T09:39:30.723Z,1002.48
2022-11-29T09:40:30.674Z,1002.51
2022-11-29T09:41:30.710Z,1002.49
2022-11-29T09:42:30.651Z,1002.51
2022-11-29T09:43:30.677Z,1002.50
2022-11-29T09:44:30.680Z,1002.58
2022-11-29T09:45:30.683Z,1002.50
2022-11-29T09:46:30.685Z,1002.59
2022-11-29T09:47:30.612Z,1002.58
2022-11-29T09:48:30.605Z,1002.61
2022-11-29T09:49:30.630Z,1002.64
2022-11-29T09:50:30.604Z,1002.65
2022-11-29T09:51:30.560Z,1002.64
2022-11-29T09:52:30.548Z,1002.66
2022-11-29T09:53:30.616Z,1002.65
2022-11-29T09:54:30.568Z,1002.66
2022-11-29T09:55:30.558Z,1002.64
2022-11-29T09:56:30.519Z,1002.68
2022-11-29T09:57:30.499Z,1002.68
2022-11-29T09:58:30.504Z,1002.68
2022-11-29T09:59:30.499Z,1002.67
2022-11-29T10:00:30.507Z,1002.68
2022-11-29T10:01:30.509Z,1002.69
2022-11-29T10:02:30.563Z,1002.72
2022-11-29T10:03:30.442Z,1002.74
2022-11-29T10:04:30.481Z,1002.77
2022-11-29T10:05:30.468Z,1002.75
2022-11-29T10:06:30.419Z,1002.78
2022-11-29T10:07:30.453Z,1002.80
2022-11-29T10:08:30.375Z,1002.80
2022-11-29T10:09:33.746Z,1002.78
2022-11-29T10:10:30.418Z,1002.84
2022-11-29T10:11:30.348Z,1002.84
2022-11-29T10:12:30.339Z,1002.76
2022-11-29T10:13:30.389Z,1002.88
2022-11-29T10:14:30.310Z,1002.85
2022-11-29T10:15:30.373Z,1002.85
2022-11-29T10:16:30.311Z,1002.82
2022-11-29T10:17:30.275Z,1002.82
2022-11-29T10:18:30.319Z,1002.83
2022-11-29T10:19:30.260Z,1002.81
2022-11-29T10:20:32.616Z,1002.80
2022-11-29T10:21:30.298Z,1002.80
2022-11-29T10:22:30.949Z,1002.85
2022-11-29T10:23:30.203Z,1002.84
2022-11-29T10:24:30.216Z,1002.82
2022-11-29T10:25:30.240Z,1002.86
2022-11-29T10:26:34.944Z,1002.83
2022-11-29T10:27:30.280Z,1002.85
2022-11-29T10:28:30.154Z,1002.81
2022-11-29T10:29:30.144Z,1002.85
2022-11-29T10:30:30.205Z,1002.84
2022-11-29T10:31:30.137Z,1002.89
2022-11-29T10:32:30.122Z,1002.81
2022-11-29T10:33:30.116Z,1002.83
2022-11-29T10:34:30.146Z,1002.85
2022-11-29T10:35:30.114Z,1002.86
2022-11-29T10:36:30.079Z,1002.82
2022-11-29T10:37:30.055Z,1002.79
2022-11-29T10:38:31.479Z,1002.83
2022-11-29T10:39:30.061Z,1002.82
2022-11-29T10:40:30.026Z,1002.81
2022-11-29T10:41:30.030Z,1002.85
2022-11-29T10:42:30.037Z,1002.86
2022-11-29T10:43:30.032Z,1002.84
2022-11-29T10:44:29.991Z,1002.85
2022-11-29T10:45:29.987Z,1002.86
2022-11-29T10:46:30.014Z,1002.89
2022-11-29T10:47:30.013Z,1002.86
2022-11-29T10:48:29.937Z,1002.87
2022-11-29T10:49:29.943Z,1002.85
2022-11-29T10:50:29.959Z,1002.86
2022-11-29T10:51:29.917Z,1002.86
2022-11-29T10:52:29.898Z,1002.85
2022-11-29T10:53:29.894Z,1002.89
2022-11-29T10:54:29.902Z,1002.84
2022-11-29T10:55:29.862Z,1002.87
2022-11-29T10:56:29.873Z,1002.89
2022-11-29T10:57:29.856Z,1002.91
2022-11-29T10:58:29.859Z,1002.92
2022-11-29T10:59:29.850Z,1002.93
2022-11-29T11:00:29.888Z,1002.90
2022-11-29T11:01:29.847Z,1002.94
2022-11-29T11:02:29.799Z,1002.91
2022-11-29T11:03:29.814Z,1002.87
2022-11-29T11:04:29.817Z,1002.90
2022-11-29T11:05:29.862Z,1002.86
2022-11-29T11:06:29.788Z,1002.87
2022-11-29T11:07:29.792Z,1002.87
2022-11-29T11:08:29.730Z,1002.84
2022-11-29T11:09:29.729Z,1002.85
2022-11-29T11:10:29.735Z,1002.86
2022-11-29T11:11:29.710Z,1002.83
2022-11-29T11:12:29.714Z,1002.84
2022-11-29T11:13:29.710Z,1002.82
2022-11-29T11:14:29.670Z,1002.85
2022-11-29T11:15:29.684Z,1002.83
2022-11-29T11:16:32.925Z,1002.83
2022-11-29T11:17:30.630Z,1002.84
2022-11-29T11:18:29.625Z,1002.82
2022-11-29T11:19:29.611Z,1002.86
2022-11-29T11:20:29.601Z,1002.84
2022-11-29T11:21:29.602Z,1002.89
2022-11-29T11:22:29.611Z,1002.86
2022-11-29T11:23:29.562Z,1002.86
2022-11-29T11:24:29.553Z,1002.85
2022-11-29T11:25:29.557Z,1002.85
2022-11-29T11:26:29.528Z,1002.87
2022-11-29T11:27:29.560Z,1002.90
2022-11-29T11:28:29.630Z,1002.84
2022-11-29T11:29:29.534Z,1002.87
2022-11-29T11:30:29.549Z,1002.86
2022-11-29T11:31:29.612Z,1002.85
2022-11-29T11:32:29.467Z,1002.85
2022-11-29T11:33:29.478Z,1002.90
2022-11-29T11:34:29.489Z,1002.89
2022-11-29T11:35:29.430Z,1002.89
2022-11-29T11:36:29.449Z,1002.88
2022-11-29T11:37:29.519Z,1002.90
2022-11-29T11:38:29.480Z,1002.89
2022-11-29T11:39:29.426Z,1002.88
2022-11-29T11:40:29.596Z,1002.90
2022-11-29T11:41:29.378Z,1002.89
2022-11-29T11:42:29.442Z,1002.93
2022-11-29T11:43:29.371Z,1002.90
2022-11-29T11:44:52.605Z,1002.91
2022-11-29T11:45:30.428Z,1002.95
2022-11-29T11:46:29.373Z,1002.92
2022-11-29T11:47:29.355Z,1002.90
2022-11-29T11:48:29.293Z,1002.94
2022-11-29T11:49:29.314Z,1002.94
2022-11-29T11:50:29.324Z,1002.96
2022-11-29T11:51:29.265Z,1002.95
2022-11-29T11:52:29.298Z,1002.94
2022-11-29T11:53:29.341Z,1002.91
2022-11-29T11:54:29.245Z,1002.95
2022-11-29T11:55:29.239Z,1002.94
2022-11-29T11:56:29.210Z,1002.94
2022-11-29T11:57:29.195Z,1002.90
2022-11-29T11:58:29.199Z,1002.94
2022-11-29T11:59:29.242Z,1003.01
2022-11-29T12:00:55.525Z,1002.96
2022-11-29T12:01:30.160Z,1002.97
2022-11-29T12:02:29.295Z,1002.98
2022-11-29T12:03:29.352Z,1002.95
2022-11-29T12:04:29.917Z,1002.98
2022-11-29T12:05:29.132Z,1002.97
2022-11-29T12:06:30.914Z,1002.97
2022-11-29T12:07:45.431Z,1002.98
2022-11-29T12:08:30.249Z,1002.94
2022-11-29T12:09:29.134Z,1002.95
2022-11-29T12:10:29.118Z,1002.99
2022-11-29T12:11:29.127Z,1002.99
2022-11-29T12:12:29.069Z,1003.03
2022-11-29T12:13:29.038Z,1002.98
2022-11-29T12:14:29.112Z,1002.99
2022-11-29T12:15:29.143Z,1003.03
2022-11-29T12:16:29.029Z,1003.02
2022-11-29T12:17:29.005Z,1003.01
2022-11-29T12:18:28.994Z,1003.04
2022-11-29T12:19:29.036Z,1003.06
2022-11-29T12:20:29.455Z,1003.06
2022-11-29T12:21:28.970Z,1003.07
2022-11-29T12:22:28.977Z,1003.04
2022-11-29T12:23:28.958Z,1003.07
2022-11-29T12:24:28.925Z,1003.10
2022-11-29T12:25:28.966Z,1003.11
2022-11-29T12:26:55.791Z,1003.06
2022-11-29T12:27:29.956Z,1003.07
2022-11-29T12:28:28.880Z,1003.12
2022-11-29T12:29:28.882Z,1003.14
2022-11-29T12:30:28.844Z,1003.14
2022-11-29T12:31:28.931Z,1003.13
2022-11-29T12:32:28.853Z,1003.14
2022-11-29T12:33:28.828Z,1003.17
2022-11-29T12:34:28.811Z,1003.17
2022-11-29T12:35:28.842Z,1003.17
2022-11-29T12:36:28.836Z,1003.15
2022-11-29T12:37:28.785Z,1003.16
2022-11-29T12:38:28.773Z,1003.20
2022-11-29T12:39:28.761Z,1003.23
2022-11-29T12:40:28.845Z,1003.24
2022-11-29T12:41:28.753Z,1003.23
2022-11-29T12:42:28.790Z,1003.27
2022-11-29T12:43:28.741Z,1003.21
2022-11-29T12:44:28.721Z,1003.27
2022-11-29T12:45:28.681Z,1003.26
2022-11-29T12:46:28.755Z,1003.31
2022-11-29T12:47:37.218Z,1003.27
2022-11-29T12:48:29.715Z,1003.27
2022-11-29T12:49:28.632Z,1003.29
2022-11-29T12:50:28.649Z,1003.31
2022-11-29T12:51:28.666Z,1003.32
2022-11-29T12:52:28.618Z,1003.33
2022-11-29T12:53:28.617Z,1003.37
2022-11-29T12:54:28.616Z,1003.35
2022-11-29T12:55:28.617Z,1003.36
2022-11-29T12:56:28.594Z,1003.38
2022-11-29T12:57:28.563Z,1003.39
2022-11-29T12:58:28.561Z,1003.40
2022-11-29T12:59:28.547Z,1003.40
2022-11-29T13:00:28.627Z,1003.40
2022-11-29T13:01:28.566Z,1003.43
2022-11-29T13:02:28.616Z,1003.43
2022-11-29T13:03:28.561Z,1003.40
2022-11-29T13:04:28.507Z,1003.44
2022-11-29T13:05:28.487Z,1003.41
2022-11-29T13:06:28.634Z,1003.43
2022-11-29T13:07:28.451Z,1003.44
2022-11-29T13:08:28.473Z,1003.42
2022-11-29T13:09:28.424Z,1003.48
2022-11-29T13:10:28.416Z,1003.48
2022-11-29T13:11:28.461Z,1003.49
2022-11-29T13:12:28.610Z,1003.49
2022-11-29T13:13:28.428Z,1003.54
2022-11-29T13:14:44.357Z,1003.49
2022-11-29T13:15:29.363Z,1003.49
2022-11-29T13:16:31.297Z,1003.51
2022-11-29T13:17:28.347Z,1003.47
2022-11-29T13:18:28.337Z,1003.53
2022-11-29T13:19:28.309Z,1003.49
2022-11-29T13:20:28.337Z,1003.54
2022-11-29T13:21:28.316Z,1003.54
2022-11-29T13:22:28.310Z,1003.54
2022-11-29T13:23:46.028Z,1003.55
2022-11-29T13:24:29.278Z,1003.58
2022-11-29T13:25:28.249Z,1003.55
2022-11-29T13:26:28.262Z,1003.57
2022-11-29T13:27:28.343Z,1003.57
2022-11-29T13:28:28.209Z,1003.59
2022-11-29T13:29:28.209Z,1003.59
2022-11-29T13:30:28.247Z,1003.60
2022-11-29T13:31:28.230Z,1003.63
2022-11-29T13:32:28.167Z,1003.61
2022-11-29T13:33:28.172Z,1003.59
2022-11-29T13:34:28.142Z,1003.57
2022-11-29T13:35:28.141Z,1003.57
2022-11-29T13:36:28.130Z,1003.61
2022-11-29T13:37:28.116Z,1003.63
2022-11-29T13:38:28.100Z,1003.68
2022-11-29T13:39:28.107Z,1003.65
2022-11-29T13:40:28.075Z,1003.62
2022-11-29T13:41:28.093Z,1003.65
2022-11-29T13:42:28.088Z,1003.64
2022-11-29T13:43:30.455Z,1003.63
2022-11-29T13:44:28.058Z,1003.61
2022-11-29T13:45:28.050Z,1003.63
2022-11-29T13:46:28.162Z,1003.57
2022-11-29T13:47:28.068Z,1003.63
2022-11-29T13:48:28.340Z,1003.67
2022-11-29T13:49:28.004Z,1003.66
2022-11-29T13:50:27.968Z,1003.60
2022-11-29T13:51:27.966Z,1003.62
2022-11-29T13:52:28.000Z,1003.63
2022-11-29T13:53:27.942Z,1003.65
2022-11-29T13:54:27.935Z,1003.63
2022-11-29T13:55:27.952Z,1003.70
2022-11-29T13:56:27.932Z,1003.70
2022-11-29T13:57:27.925Z,1003.73
2022-11-29T13:58:27.894Z,1003.72
2022-11-29T13:59:27.935Z,1003.76
2022-11-29T14:00:27.872Z,1003.74
2022-11-29T14:01:27.921Z,1003.72
2022-11-29T14:02:27.923Z,1003.71
2022-11-29T14:03:27.854Z,1003.73
2022-11-29T14:04:27.891Z,1003.74
2022-11-29T14:05:27.813Z,1003.78
2022-11-29T14:06:27.823Z,1003.78
2022-11-29T14:07:27.849Z,1003.77
2022-11-29T14:08:34.087Z,1003.78
2022-11-29T14:09:28.784Z,1003.73
2022-11-29T14:10:29.336Z,1003.76
2022-11-29T14:11:27.749Z,1003.75
2022-11-29T14:12:27.775Z,1003.74
2022-11-29T14:13:27.756Z,1003.74
2022-11-29T14:14:27.730Z,1003.74
2022-11-29T14:15:27.722Z,1003.78
2022-11-29T14:16:27.748Z,1003.78
2022-11-29T14:17:27.680Z,1003.73
2022-11-29T14:18:27.695Z,1003.76
2022-11-29T14:19:32.817Z,1003.80
2022-11-29T14:20:28.691Z,1003.79
2022-11-29T14:21:27.720Z,1003.77
2022-11-29T14:22:27.697Z,1003.79
2022-11-29T14:23:27.624Z,1003.82
2022-11-29T14:24:27.630Z,1003.80
2022-11-29T14:25:50.401Z,1003.80
2022-11-29T14:26:29.188Z,1003.79
2022-11-29T14:27:27.570Z,1003.80
2022-11-29T14:28:28.396Z,1003.77
2022-11-29T14:29:27.563Z,1003.79
2022-11-29T14:30:27.538Z,1003.80
2022-11-29T14:31:27.564Z,1003.84
2022-11-29T14:32:27.575Z,1003.85
2022-11-29T14:33:27.506Z,1003.86
2022-11-29T14:34:27.563Z,1003.89
2022-11-29T14:35:27.488Z,1003.86
2022-11-29T14:36:27.566Z,1003.87
2022-11-29T14:37:27.467Z,1003.90
2022-11-29T14:38:30.930Z,1003.89
2022-11-29T14:39:27.524Z,1003.89
2022-11-29T14:40:27.448Z,1003.92
2022-11-29T14:41:27.538Z,1003.94
2022-11-29T14:42:28.064Z,1003.91
2022-11-29T14:43:28.634Z,1003.88
2022-11-29T14:44:27.449Z,1003.88
2022-11-29T14:45:27.413Z,1003.91
2022-11-29T14:46:29.465Z,1003.91
2022-11-29T14:47:27.386Z,1003.89
2022-11-29T14:48:27.369Z,1003.90
2022-11-29T14:49:27.354Z,1003.93
2022-11-29T14:50:27.381Z,1003.91
2022-11-29T14:51:27.404Z,1003.91
2022-11-29T14:52:27.938Z,1003.91
2022-11-29T14:53:27.303Z,1003.91
2022-11-29T14:54:27.293Z,1003.93
2022-11-29T14:55:27.298Z,1003.88
2022-11-29T14:56:27.291Z,1003.91
2022-11-29T14:57:27.303Z,1003.90
2022-11-29T14:58:27.292Z,1003.90
2022-11-29T14:59:27.228Z,1003.90
2022-11-29T15:00:27.248Z,1003.95
2022-11-29T15:01:27.310Z,1003.93
2022-11-29T15:02:27.280Z,1003.93
2022-11-29T15:03:27.274Z,1003.96
2022-11-29T15:04:27.176Z,1003.98
2022-11-29T15:05:27.164Z,1003.99
2022-11-29T15:06:27.192Z,1003.96
2022-11-29T15:07:27.301Z,1003.96
2022-11-29T15:08:27.927Z,1003.97
2022-11-29T15:09:27.188Z,1003.99
2022-11-29T15:10:27.238Z,1003.96
2022-11-29T15:11:27.173Z,1003.99
2022-11-29T15:12:27.093Z,1004.03
2022-11-29T15:13:27.103Z,1004.02
2022-11-29T15:14:27.070Z,1004.05
2022-11-29T15:15:27.054Z,1004.04
2022-11-29T15:16:27.114Z,1004.09
2022-11-29T15:17:27.055Z,1004.07
2022-11-29T15:18:27.020Z,1004.10
2022-11-29T15:19:27.044Z,1004.09
2022-11-29T15:20:27.038Z,1004.07
2022-11-29T15:21:27.012Z,1004.12
2022-11-29T15:22:27.003Z,1004.08
2022-11-29T15:23:26.984Z,1004.12
2022-11-29T15:24:28.962Z,1004.05
2022-11-29T15:25:26.949Z,1004.05
2022-11-29T15:26:26.943Z,1004.05
2022-11-29T15:27:26.926Z,1004.07
2022-11-29T15:28:26.909Z,1004.02
2022-11-29T15:29:26.933Z,1004.07
2022-11-29T15:30:26.898Z,1004.06
2022-11-29T15:31:27.073Z,1004.05
2022-11-29T15:32:26.902Z,1004.07
2022-11-29T15:33:26.931Z,1004.05
2022-11-29T15:34:26.985Z,1004.08
2022-11-29T15:35:26.887Z,1004.07
2022-11-29T15:36:26.898Z,1004.09
2022-11-29T15:37:26.850Z,1004.07
2022-11-29T15:38:26.829Z,1004.09
2022-11-29T15:39:27.174Z,1004.07
2022-11-29T15:40:26.905Z,1004.10
2022-11-29T15:41:26.779Z,1004.08
2022-11-29T15:42:32.440Z,1004.13
2022-11-29T15:43:27.765Z,1004.15
2022-11-29T15:44:26.774Z,1004.12
2022-11-29T15:45:26.917Z,1004.15
2022-11-29T15:46:26.873Z,1004.11
2022-11-29T15:47:26.734Z,1004.12
2022-11-29T15:48:26.700Z,1004.14
2022-11-29T15:49:26.712Z,1004.13
2022-11-29T15:50:26.723Z,1004.15
2022-11-29T15:51:26.682Z,1004.15
2022-11-29T15:52:26.670Z,1004.15
2022-11-29T15:53:26.681Z,1004.19
2022-11-29T15:54:26.789Z,1004.20
2022-11-29T15:55:27.368Z,1004.22
2022-11-29T15:56:26.612Z,1004.18
2022-11-29T15:57:26.630Z,1004.20
2022-11-29T15:58:26.630Z,1004.24
2022-11-29T15:59:26.637Z,1004.21
2022-11-29T16:00:26.568Z,1004.22
2022-11-29T16:01:26.631Z,1004.24
2022-11-29T16:02:26.640Z,1004.25
2022-11-29T16:03:26.584Z,1004.24
2022-11-29T16:04:26.578Z,1004.29
2022-11-29T16:05:26.513Z,1004.26
2022-11-29T16:06:26.569Z,1004.30
2022-11-29T16:07:26.609Z,1004.33
2022-11-29T16:08:26.544Z,1004.34
2022-11-29T16:09:26.506Z,1004.38
2022-11-29T16:10:30.518Z,1004.33
2022-11-29T16:11:27.445Z,1004.36
2022-11-29T16:12:26.472Z,1004.40
2022-11-29T16:13:26.547Z,1004.38
2022-11-29T16:14:26.532Z,1004.41
2022-11-29T16:15:27.385Z,1004.42
2022-11-29T16:16:26.427Z,1004.40
2022-11-29T16:17:26.429Z,1004.44
2022-11-29T16:18:26.380Z,1004.36
2022-11-29T16:19:26.383Z,1004.36
2022-11-29T16:20:26.442Z,1004.39
2022-11-29T16:21:28.506Z,1004.43
2022-11-29T16:22:26.365Z,1004.42
2022-11-29T16:23:26.347Z,1004.41
2022-11-29T16:24:26.313Z,1004.41
2022-11-29T16:25:26.330Z,1004.42
2022-11-29T16:26:26.312Z,1004.43
2022-11-29T16:27:26.867Z,1004.46
2022-11-29T16:28:26.279Z,1004.46
2022-11-29T16:29:26.286Z,1004.49
2022-11-29T16:30:26.326Z,1004.45
2022-11-29T16:31:26.257Z,1004.44
2022-11-29T16:32:26.229Z,1004.43
2022-11-29T16:33:26.221Z,1004.45
2022-11-29T16:34:26.218Z,1004.45
2022-11-29T16:35:26.215Z,1004.45
2022-11-29T16:36:26.189Z,1004.45
2022-11-29T16:37:26.196Z,1004.45
2022-11-29T16:38:26.222Z,1004.53
2022-11-29T16:39:26.148Z,1004.55
2022-11-29T16:40:26.144Z,1004.52
2022-11-29T16:41:26.169Z,1004.52
2022-11-29T16:42:26.406Z,1004.52
2022-11-29T16:43:26.099Z,1004.54
2022-11-29T16:44:26.115Z,1004.55
2022-11-29T16:45:26.176Z,1004.59
2022-11-29T16:46:26.103Z,1004.58
2022-11-29T16:47:26.106Z,1004.58
2022-11-29T16:48:31.499Z,1004.60
2022-11-29T16:49:28.698Z,1004.57
2022-11-29T16:50:26.356Z,1004.59
2022-11-29T16:51:26.121Z,1004.59
2022-11-29T16:52:26.118Z,1004.61
2022-11-29T16:53:26.132Z,1004.58
2022-11-29T16:54:26.172Z,1004.58
2022-11-29T16:55:26.042Z,1004.64
2022-11-29T16:56:26.050Z,1004.61
2022-11-29T16:57:26.306Z,1004.58
2022-11-29T16:58:29.165Z,1004.63
2022-11-29T16:59:29.449Z,1004.61
2022-11-29T17:00:26.129Z,1004.63
2022-11-29T17:01:26.079Z,1004.67
2022-11-29T17:02:26.330Z,1004.64
2022-11-29T17:03:26.118Z,1004.69
2022-11-29T17:04:26.192Z,1004.67
2022-11-29T17:05:27.674Z,1004.62
2022-11-29T17:06:25.888Z,1004.62
2022-11-29T17:07:26.165Z,1004.65
2022-11-29T17:08:26.414Z,1004.63
2022-11-29T17:09:26.126Z,1004.66
2022-11-29T17:10:26.182Z,1004.66
2022-11-29T17:11:26.187Z,1004.63
2022-11-29T17:12:26.090Z,1004.62
2022-11-29T17:13:26.351Z,1004.62
2022-11-29T17:14:26.366Z,1004.65
2022-11-29T17:15:26.126Z,1004.68
2022-11-29T17:16:26.287Z,1004.67
2022-11-29T17:17:26.029Z,1004.69
2022-11-29T17:18:25.833Z,1004.65
2022-11-29T17:19:26.023Z,1004.69
2022-11-29T17:20:25.779Z,1004.68
2022-11-29T17:21:25.805Z,1004.69
2022-11-29T17:22:26.143Z,1004.68
2022-11-29T17:23:25.966Z,1004.70
2022-11-29T17:24:26.543Z,1004.72
2022-11-29T17:25:25.918Z,1004.70
2022-11-29T17:26:25.928Z,1004.70
2022-11-29T17:27:26.084Z,1004.68
2022-11-29T17:28:26.709Z,1004.68
2022-11-29T17:29:25.828Z,1004.72
2022-11-29T17:30:25.711Z,1004.73
2022-11-29T17:31:26.839Z,1004.74
2022-11-29T17:32:26.997Z,1004.72
2022-11-29T17:33:25.659Z,1004.72
2022-11-29T17:34:25.611Z,1004.75
2022-11-29T17:35:25.595Z,1004.75